Arrantzale — EBVT — position and weather

sailwx.info

Track history (hours):
 
Tides and Currents Weather Stations Pressure Air Temp Water Temp Dewpoint Dewpoint Depression Visibility Wind Speed Wind Dir Waves Ship Positions

Arrantzale

Last reported at 2014-Oct-31 13:16 UTC. Time now 2014-Nov-01 11:56 UTC.
Position N 43°23' W 001°47'.

Length 32 m.

Type: Fishing. MMSI: 224065290.

Date/timePositionNaut miles runAvg speedWind from/ knotsBaromVisibWave heightAir tempDewpointWater temp
2014-Oct-31 13:16N 43°23' W 001°47'0 0.1
2014-Oct-31 12:33N 43°23' W 001°47'0 0.0
2014-Oct-31 10:23N 43°23' W 001°47'11 9.2
2014-Oct-31 09:10N 43°34' W 001°45'610.2
2014-Oct-31 08:33N 43°40' W 001°43'10 9.9
2014-Oct-31 07:33N 43°50' W 001°40'10 9.6
2014-Oct-31 06:33N 43°60' W 001°39'7 7.5
2014-Oct-31 05:33N 44°07' W 001°37'6 5.7
2014-Oct-31 04:33N 44°12' W 001°34'6 5.6
2014-Oct-31 03:33N 44°18' W 001°33'1 0.7
2014-Oct-31 02:34N 44°17' W 001°33'1 1.3
2014-Oct-31 01:33N 44°16' W 001°32'2 2.2
2014-Oct-31 00:34N 44°17' W 001°35'8 7.9
2014-Oct-30 23:34N 44°25' W 001°34'1110.8
2014-Oct-30 22:34N 44°14' W 001°34'1110.8
2014-Oct-30 21:33N 44°04' W 001°35'1111.0
2014-Oct-30 20:33N 43°53' W 001°38'1311.0
2014-Oct-30 19:24N 43°40' W 001°42'1010.9
2014-Oct-30 18:27N 43°30' W 001°45'7 6.8
2014-Oct-30 17:22N 43°23' W 001°47'0 0.0
2014-Oct-30 14:04N 43°23' W 001°48'0 0.1
2014-Oct-30 13:26N 43°23' W 001°48'3410.4
2014-Oct-30 10:12N 43°56' W 001°41'710.7
2014-Oct-30 09:33N 44°03' W 001°39'1110.9
2014-Oct-30 08:33N 44°14' W 001°37'1010.4
2014-Oct-30 07:33N 44°24' W 001°35'6 6.5
2014-Oct-30 06:33N 44°31' W 001°34'9 9.1
2014-Oct-30 05:34N 44°40' W 001°32'1 0.6
2014-Oct-30 04:33N 44°39' W 001°31'1 0.7
2014-Oct-30 03:34N 44°39' W 001°31'1 0.6
2014-Oct-30 02:34N 44°38' W 001°31'2 2.5
2014-Oct-30 01:34N 44°36' W 001°30'1 0.7
2014-Oct-30 00:34N 44°35' W 001°29'1 1.4
2014-Oct-29 23:33N 44°34' W 001°29'2211.2
2014-Oct-29 21:33N 44°11' W 001°30'2 1.6
2014-Oct-29 20:13N 44°13' W 001°32'50 7.0
2014-Oct-29 13:06N 43°24' W 001°46'16 5.2
2014-Oct-29 10:09N 43°40' W 001°42'8 9.7
2014-Oct-29 09:22N 43°47' W 001°41'910.0
2014-Oct-29 08:28N 43°56' W 001°38'910.0
2014-Oct-29 07:33N 44°05' W 001°37'10 9.5
2014-Oct-29 06:33N 44°15' W 001°34'2 2.5
2014-Oct-29 05:33N 44°17' W 001°34'0 0.5
2014-Oct-29 04:33N 44°17' W 001°33'9 9.4
2014-Oct-29 03:33N 44°07' W 001°33'9 4.2
2014-Oct-29 01:28N 44°01' W 001°42'1 0.9
2014-Oct-29 00:33N 44°01' W 001°41'1 1.0
2014-Oct-28 23:33N 43°60' W 001°40'1 1.0
2014-Oct-28 22:32N 43°59' W 001°39'34 4.6
2014-Oct-28 15:08N 43°25' W 001°46'3 3.2
2014-Oct-28 14:19N 43°23' W 001°48'0 0.1
2014-Oct-28 13:30N 43°23' W 001°48'0 0.0
2014-Oct-28 12:30N 43°23' W 001°48'0 0.0
2014-Oct-28 11:09N 43°23' W 001°48'0 0.0
2014-Oct-28 10:31N 43°23' W 001°48'0 0.0
2014-Oct-28 09:29N 43°23' W 001°48'0 0.0
2014-Oct-28 08:32N 43°23' W 001°48'0 0.0
2014-Oct-28 07:24N 43°23' W 001°48'0 0.1
2014-Oct-28 06:33N 43°23' W 001°47'0 0.1
2014-Oct-28 05:33N 43°23' W 001°48'0 0.0
2014-Oct-28 04:08N 43°23' W 001°48'0 0.0
2014-Oct-27 14:05N 43°23' W 001°47'  
2014-Oct-24 14:30N 43°23' W 001°47'0 0.0
2014-Oct-24 12:26N 43°23' W 001°47'0 0.0
2014-Oct-24 10:33N 43°23' W 001°47'0 0.0
2014-Oct-24 09:33N 43°23' W 001°47'0 0.0
2014-Oct-24 08:33N 43°23' W 001°47'0 0.0
2014-Oct-24 07:33N 43°23' W 001°47'5 5.4
2014-Oct-24 06:33N 43°28' W 001°45'4 0.2
2014-Oct-23 13:19N 43°24' W 001°46'2 2.1
2014-Oct-23 12:33N 43°23' W 001°47'0 0.0
2014-Oct-23 11:33N 43°23' W 001°47'0 0.0
2014-Oct-23 10:34N 43°23' W 001°47'0 0.0
2014-Oct-23 09:30N 43°23' W 001°47'0 0.0
2014-Oct-23 08:33N 43°23' W 001°47'0 0.0
2014-Oct-23 07:33N 43°23' W 001°47'0 0.1
2014-Oct-23 02:31N 43°23' W 001°47'0 0.5
2014-Oct-23 01:33N 43°23' W 001°48'0 0.0
2014-Oct-23 00:20N 43°23' W 001°48'0 0.0
2014-Oct-22 23:29N 43°23' W 001°48'37 2.5
2014-Oct-22 08:19N 44°00' W 001°43'37 2.2
2014-Oct-21 15:28N 43°23' W 001°47'0 0.1
2014-Oct-21 14:24N 43°23' W 001°47'  
Track history (hours):
 
Tides and Currents Weather Stations Pressure Air Temp Water Temp Dewpoint Dewpoint Depression Visibility Wind Speed Wind Dir Waves Ship Positions

Arrantzale

Last reported at 2014-Oct-31 13:16 UTC. Time now 2014-Nov-01 11:56 UTC.
Position N 43°23' W 001°47'.

Length 32 m.

Type: Fishing. MMSI: 224065290.

Date/timePositionNaut miles runAvg speedWind from/ knotsBaromVisibWave heightAir tempDewpointWater temp
2014-Oct-31 13:16N 43°23' W 001°47'0 0.1
2014-Oct-31 12:33N 43°23' W 001°47'0 0.0
2014-Oct-31 10:23N 43°23' W 001°47'11 9.2
2014-Oct-31 09:10N 43°34' W 001°45'610.2
2014-Oct-31 08:33N 43°40' W 001°43'10 9.9
2014-Oct-31 07:33N 43°50' W 001°40'10 9.6
2014-Oct-31 06:33N 43°60' W 001°39'7 7.5
2014-Oct-31 05:33N 44°07' W 001°37'6 5.7
2014-Oct-31 04:33N 44°12' W 001°34'6 5.6
2014-Oct-31 03:33N 44°18' W 001°33'1 0.7
2014-Oct-31 02:34N 44°17' W 001°33'1 1.3
2014-Oct-31 01:33N 44°16' W 001°32'2 2.2
2014-Oct-31 00:34N 44°17' W 001°35'8 7.9
2014-Oct-30 23:34N 44°25' W 001°34'1110.8
2014-Oct-30 22:34N 44°14' W 001°34'1110.8
2014-Oct-30 21:33N 44°04' W 001°35'1111.0
2014-Oct-30 20:33N 43°53' W 001°38'1311.0
2014-Oct-30 19:24N 43°40' W 001°42'1010.9
2014-Oct-30 18:27N 43°30' W 001°45'7 6.8
2014-Oct-30 17:22N 43°23' W 001°47'0 0.0
2014-Oct-30 14:04N 43°23' W 001°48'0 0.1
2014-Oct-30 13:26N 43°23' W 001°48'3410.4
2014-Oct-30 10:12N 43°56' W 001°41'710.7
2014-Oct-30 09:33N 44°03' W 001°39'1110.9
2014-Oct-30 08:33N 44°14' W 001°37'1010.4
2014-Oct-30 07:33N 44°24' W 001°35'6 6.5
2014-Oct-30 06:33N 44°31' W 001°34'9 9.1
2014-Oct-30 05:34N 44°40' W 001°32'1 0.6
2014-Oct-30 04:33N 44°39' W 001°31'1 0.7
2014-Oct-30 03:34N 44°39' W 001°31'1 0.6
2014-Oct-30 02:34N 44°38' W 001°31'2 2.5
2014-Oct-30 01:34N 44°36' W 001°30'1 0.7
2014-Oct-30 00:34N 44°35' W 001°29'1 1.4
2014-Oct-29 23:33N 44°34' W 001°29'2211.2
2014-Oct-29 21:33N 44°11' W 001°30'2 1.6
2014-Oct-29 20:13N 44°13' W 001°32'50 7.0
2014-Oct-29 13:06N 43°24' W 001°46'16 5.2
2014-Oct-29 10:09N 43°40' W 001°42'8 9.7
2014-Oct-29 09:22N 43°47' W 001°41'910.0
2014-Oct-29 08:28N 43°56' W 001°38'910.0
2014-Oct-29 07:33N 44°05' W 001°37'10 9.5
2014-Oct-29 06:33N 44°15' W 001°34'2 2.5
2014-Oct-29 05:33N 44°17' W 001°34'0 0.5
2014-Oct-29 04:33N 44°17' W 001°33'9 9.4
2014-Oct-29 03:33N 44°07' W 001°33'9 4.2
2014-Oct-29 01:28N 44°01' W 001°42'1 0.9
2014-Oct-29 00:33N 44°01' W 001°41'1 1.0
2014-Oct-28 23:33N 43°60' W 001°40'1 1.0
2014-Oct-28 22:32N 43°59' W 001°39'34 4.6
2014-Oct-28 15:08N 43°25' W 001°46'3 3.2
2014-Oct-28 14:19N 43°23' W 001°48'0 0.1
2014-Oct-28 13:30N 43°23' W 001°48'0 0.0
2014-Oct-28 12:30N 43°23' W 001°48'0 0.0
2014-Oct-28 11:09N 43°23' W 001°48'0 0.0
2014-Oct-28 10:31N 43°23' W 001°48'0 0.0
2014-Oct-28 09:29N 43°23' W 001°48'0 0.0
2014-Oct-28 08:32N 43°23' W 001°48'0 0.0
2014-Oct-28 07:24N 43°23' W 001°48'0 0.1
2014-Oct-28 06:33N 43°23' W 001°47'0 0.1
2014-Oct-28 05:33N 43°23' W 001°48'0 0.0
2014-Oct-28 04:08N 43°23' W 001°48'0 0.0
2014-Oct-27 14:05N 43°23' W 001°47'  
2014-Oct-24 14:30N 43°23' W 001°47'0 0.0
2014-Oct-24 12:26N 43°23' W 001°47'0 0.0
2014-Oct-24 10:33N 43°23' W 001°47'0 0.0
2014-Oct-24 09:33N 43°23' W 001°47'0 0.0
2014-Oct-24 08:33N 43°23' W 001°47'0 0.0
2014-Oct-24 07:33N 43°23' W 001°47'5 5.4
2014-Oct-24 06:33N 43°28' W 001°45'4 0.2
2014-Oct-23 13:19N 43°24' W 001°46'2 2.1
2014-Oct-23 12:33N 43°23' W 001°47'0 0.0
2014-Oct-23 11:33N 43°23' W 001°47'0 0.0
2014-Oct-23 10:34N 43°23' W 001°47'0 0.0
2014-Oct-23 09:30N 43°23' W 001°47'0 0.0
2014-Oct-23 08:33N 43°23' W 001°47'0 0.0
2014-Oct-23 07:33N 43°23' W 001°47'0 0.1
2014-Oct-23 02:31N 43°23' W 001°47'0 0.5
2014-Oct-23 01:33N 43°23' W 001°48'0 0.0
2014-Oct-23 00:20N 43°23' W 001°48'0 0.0
2014-Oct-22 23:29N 43°23' W 001°48'37 2.5
2014-Oct-22 08:19N 44°00' W 001°43'37 2.2
2014-Oct-21 15:28N 43°23' W 001°47'0 0.1
2014-Oct-21 14:24N 43°23' W 001°47'  

Dump ship's entire track history